createdAt,value
2023-05-23T00:01:45.433Z,24.96
2023-05-23T00:04:17.316Z,24.96
2023-05-23T00:06:50.611Z,24.96
2023-05-23T00:09:18.059Z,24.96
2023-05-23T00:11:45.865Z,24.97
2023-05-23T00:14:14.218Z,24.97
2023-05-23T00:16:44.141Z,24.96
2023-05-23T00:19:12.029Z,24.95
2023-05-23T00:21:39.341Z,24.96
2023-05-23T00:24:07.424Z,24.96
2023-05-23T00:26:34.812Z,24.97
2023-05-23T00:29:02.656Z,24.96
2023-05-23T00:31:29.926Z,24.97
2023-05-23T00:33:57.192Z,24.97
2023-05-23T00:36:24.415Z,24.98
2023-05-23T00:38:53.254Z,24.97
2023-05-23T00:41:21.068Z,24.99
2023-05-23T00:43:48.805Z,24.97
2023-05-23T00:46:17.166Z,24.98
2023-05-23T00:48:44.472Z,24.98
2023-05-23T00:51:11.819Z,24.97
2023-05-23T00:53:39.111Z,24.96
2023-05-23T00:56:06.554Z,24.97
2023-05-23T00:58:33.886Z,24.97
2023-05-23T01:01:01.894Z,24.97
2023-05-23T01:03:30.324Z,24.97
2023-05-23T01:05:57.818Z,24.97
2023-05-23T01:08:25.173Z,24.96
2023-05-23T01:10:52.796Z,24.97
2023-05-23T01:13:43.390Z,24.97
2023-05-23T01:16:39.359Z,24.98
2023-05-23T01:19:15.334Z,24.97
2023-05-23T01:21:44.999Z,24.96
2023-05-23T01:24:36.857Z,24.97
2023-05-23T01:27:41.453Z,24.95
2023-05-23T01:30:10.573Z,24.97
2023-05-23T01:32:38.234Z,24.97
2023-05-23T01:35:06.570Z,24.97
2023-05-23T01:37:33.786Z,24.98
2023-05-23T01:40:01.228Z,24.97
2023-05-23T01:42:28.720Z,24.97
2023-05-23T01:44:59.293Z,24.96
2023-05-23T01:47:27.556Z,24.96
2023-05-23T01:49:55.685Z,24.96
2023-05-23T01:52:23.311Z,24.96
2023-05-23T01:54:51.028Z,24.95
2023-05-23T01:57:19.338Z,24.95
2023-05-23T01:59:46.954Z,24.95
2023-05-23T02:02:14.472Z,24.96
2023-05-23T02:04:41.766Z,24.96
2023-05-23T02:07:09.034Z,24.95
2023-05-23T02:09:36.311Z,24.93
2023-05-23T02:12:03.801Z,24.95
2023-05-23T02:14:31.117Z,24.95
2023-05-23T02:16:58.374Z,24.94
2023-05-23T02:19:26.757Z,24.94
2023-05-23T02:21:54.098Z,24.92
2023-05-23T02:24:21.388Z,24.91
2023-05-23T02:26:48.611Z,24.91
2023-05-23T02:29:16.479Z,24.92
2023-05-23T02:31:43.754Z,24.91
2023-05-23T02:34:11.122Z,24.91
2023-05-23T02:36:39.307Z,24.92
2023-05-23T02:39:06.773Z,24.91
2023-05-23T02:41:34.029Z,24.92
2023-05-23T02:44:01.306Z,24.90
2023-05-23T02:46:28.533Z,24.91
2023-05-23T02:48:56.092Z,24.89
2023-05-23T02:51:23.365Z,24.90
2023-05-23T02:53:50.614Z,24.90
2023-05-23T02:56:18.909Z,24.87
2023-05-23T02:58:46.525Z,24.89
2023-05-23T03:01:13.745Z,24.89
2023-05-23T03:03:41.847Z,24.90
2023-05-23T03:06:10.689Z,24.89
2023-05-23T03:08:38.077Z,24.86
2023-05-23T03:11:05.486Z,24.87
2023-05-23T03:13:32.891Z,24.89
2023-05-23T03:16:00.356Z,24.87
2023-05-23T03:18:27.932Z,24.87
2023-05-23T03:20:55.469Z,24.84
2023-05-23T03:23:22.987Z,24.85
2023-05-23T03:25:50.406Z,24.85
2023-05-23T03:28:17.854Z,24.86
2023-05-23T03:30:45.229Z,24.86
2023-05-23T03:33:12.649Z,24.86
2023-05-23T03:35:40.670Z,24.85
2023-05-23T03:38:08.208Z,24.84
2023-05-23T03:40:35.631Z,24.86
2023-05-23T03:43:06.867Z,24.86
2023-05-23T03:45:34.420Z,24.84
2023-05-23T03:48:02.428Z,24.85
2023-05-23T03:50:29.896Z,24.83
2023-05-23T03:52:57.395Z,24.82
2023-05-23T03:55:25.636Z,24.81
2023-05-23T03:57:53.252Z,24.80
2023-05-23T04:00:20.955Z,24.82
2023-05-23T04:02:48.637Z,24.81
2023-05-23T04:05:20.320Z,24.81
2023-05-23T04:07:47.751Z,24.83
2023-05-23T04:10:15.220Z,24.80
2023-05-23T04:12:43.034Z,24.81
2023-05-23T04:15:11.499Z,24.81
2023-05-23T04:17:39.166Z,24.81
2023-05-23T04:20:10.267Z,24.80
2023-05-23T04:22:37.663Z,24.81
2023-05-23T04:25:06.439Z,24.79
2023-05-23T04:27:34.656Z,24.77
2023-05-23T04:30:04.008Z,24.80
2023-05-23T04:32:34.105Z,24.79
2023-05-23T04:35:02.318Z,24.79
2023-05-23T04:37:33.124Z,24.80
2023-05-23T04:40:01.108Z,24.80
2023-05-23T04:42:29.469Z,24.78
2023-05-23T04:44:58.236Z,24.79
2023-05-23T04:47:29.165Z,24.78
2023-05-23T04:49:57.514Z,24.79
2023-05-23T04:52:25.590Z,24.80
2023-05-23T04:54:54.056Z,24.79
2023-05-23T04:57:23.815Z,24.79
2023-05-23T04:59:51.032Z,24.76
2023-05-23T05:02:18.620Z,24.82
2023-05-23T05:04:46.313Z,24.86
2023-05-23T05:07:13.706Z,24.85
2023-05-23T05:09:41.307Z,24.83
2023-05-23T05:12:08.756Z,24.83
2023-05-23T05:14:36.053Z,24.81
2023-05-23T05:17:04.052Z,24.80
2023-05-23T05:19:31.904Z,24.84
2023-05-23T05:22:00.290Z,24.83
2023-05-23T05:24:27.912Z,24.78
2023-05-23T05:26:55.733Z,24.76
2023-05-23T05:29:26.730Z,24.76
2023-05-23T05:31:53.976Z,24.75
2023-05-23T05:34:21.330Z,24.73
2023-05-23T05:36:48.568Z,24.75
2023-05-23T05:39:15.872Z,24.72
2023-05-23T05:41:43.169Z,24.71
2023-05-23T05:44:10.668Z,24.70
2023-05-23T05:46:38.025Z,24.62
2023-05-23T05:49:05.357Z,24.63
2023-05-23T05:51:32.631Z,24.62
2023-05-23T05:53:59.945Z,24.59
2023-05-23T05:56:28.021Z,24.51
2023-05-23T05:58:55.271Z,24.47
2023-05-23T06:01:22.528Z,24.42
2023-05-23T06:03:50.108Z,24.31
2023-05-23T06:06:17.621Z,24.27
2023-05-23T06:08:44.931Z,24.34
2023-05-23T06:11:12.244Z,24.34
2023-05-23T06:13:39.530Z,24.33
2023-05-23T06:16:07.302Z,24.23
2023-05-23T06:18:34.628Z,24.23
2023-05-23T06:21:01.829Z,24.31
2023-05-23T06:23:29.042Z,24.28
2023-05-23T06:25:56.336Z,24.21
2023-05-23T06:28:23.553Z,24.20
2023-05-23T06:30:50.860Z,24.10
2023-05-23T06:33:18.156Z,24.18
2023-05-23T06:35:45.381Z,24.16
2023-05-23T06:38:12.728Z,24.14
2023-05-23T06:40:40.247Z,24.13
2023-05-23T06:43:07.590Z,24.11
2023-05-23T06:45:35.912Z,24.09
2023-05-23T06:48:03.327Z,24.08
2023-05-23T06:50:30.652Z,24.01
2023-05-23T06:52:57.931Z,23.97
2023-05-23T06:55:25.442Z,24.11
2023-05-23T06:57:52.799Z,24.12
2023-05-23T07:00:20.600Z,24.09
2023-05-23T07:02:50.719Z,24.03
2023-05-23T07:05:18.182Z,24.02
2023-05-23T07:07:45.460Z,24.01
2023-05-23T07:10:13.139Z,24.06
2023-05-23T07:12:40.370Z,24.11
2023-05-23T07:15:08.102Z,24.11
2023-05-23T07:17:36.334Z,24.12
2023-05-23T07:20:04.719Z,24.05
2023-05-23T07:22:31.981Z,24.06
2023-05-23T07:24:59.258Z,24.11
2023-05-23T07:27:27.827Z,24.04
2023-05-23T07:29:55.039Z,24.07
2023-05-23T07:32:22.255Z,24.07
2023-05-23T07:34:49.496Z,24.02
2023-05-23T07:37:17.020Z,24.12
2023-05-23T07:39:44.301Z,24.04
2023-05-23T07:42:11.557Z,23.99
2023-05-23T07:44:38.859Z,24.06
2023-05-23T07:47:06.192Z,23.94
2023-05-23T07:49:33.406Z,23.92
2023-05-23T07:52:00.699Z,23.99
2023-05-23T07:54:28.043Z,23.97
2023-05-23T07:56:55.384Z,23.93
2023-05-23T07:59:22.767Z,23.69
2023-05-23T08:01:52.994Z,23.48
2023-05-23T08:04:20.382Z,23.87
2023-05-23T08:07:00.740Z,24.01
2023-05-23T08:09:32.081Z,24.16
2023-05-23T08:11:59.361Z,24.22
2023-05-23T08:14:38.743Z,24.26
2023-05-23T08:17:15.251Z,24.24
2023-05-23T08:19:42.732Z,24.18
2023-05-23T08:22:10.213Z,24.24
2023-05-23T08:24:37.513Z,24.29
2023-05-23T08:27:06.616Z,24.37
2023-05-23T08:29:35.276Z,24.29
2023-05-23T08:32:02.681Z,24.30
2023-05-23T08:34:29.950Z,24.33
2023-05-23T08:36:57.212Z,24.31
2023-05-23T08:39:24.549Z,24.32
2023-05-23T08:41:52.422Z,24.31
2023-05-23T08:44:19.694Z,24.26
2023-05-23T08:46:49.799Z,24.24
2023-05-23T08:49:18.841Z,24.20
2023-05-23T08:51:46.570Z,24.24
2023-05-23T08:54:22.495Z,24.21
2023-05-23T08:56:52.251Z,24.16
2023-05-23T08:59:19.902Z,24.15
2023-05-23T09:01:48.764Z,24.19
2023-05-23T09:04:16.163Z,24.22
2023-05-23T09:06:43.441Z,24.22
2023-05-23T09:09:10.713Z,24.09
2023-05-23T09:11:38.301Z,24.09
2023-05-23T09:14:08.043Z,24.08
2023-05-23T09:16:35.708Z,24.02
2023-05-23T09:19:13.453Z,24.12
2023-05-23T09:21:44.882Z,24.14
2023-05-23T09:24:15.569Z,24.18
2023-05-23T09:26:42.791Z,24.15
2023-05-23T09:29:10.041Z,24.10
2023-05-23T09:31:37.515Z,24.07
2023-05-23T09:34:05.163Z,24.12
2023-05-23T09:36:35.074Z,24.18
2023-05-23T09:39:06.011Z,24.16
2023-05-23T09:41:36.067Z,24.15
2023-05-23T09:44:10.297Z,24.22
2023-05-23T09:46:38.710Z,24.23
2023-05-23T09:49:26.512Z,24.30
2023-05-23T09:52:01.392Z,24.38
2023-05-23T09:54:28.899Z,24.46
2023-05-23T09:56:57.225Z,24.52
2023-05-23T09:59:28.594Z,24.56
2023-05-23T10:01:58.198Z,24.56
2023-05-23T10:04:26.567Z,24.44
2023-05-23T10:07:05.090Z,24.42
2023-05-23T10:09:36.424Z,24.44
2023-05-23T10:12:27.841Z,24.48
2023-05-23T10:15:01.868Z,24.50
2023-05-23T10:17:56.813Z,24.48
2023-05-23T10:20:29.408Z,24.48
2023-05-23T10:22:57.093Z,24.45
2023-05-23T10:25:24.441Z,24.38
2023-05-23T10:27:59.540Z,24.41
2023-05-23T10:30:28.170Z,24.30
2023-05-23T10:32:56.582Z,24.42
2023-05-23T10:35:46.497Z,24.35
2023-05-23T10:38:16.774Z,24.22
2023-05-23T10:41:13.618Z,24.18
2023-05-23T10:43:47.119Z,24.23
2023-05-23T10:46:15.084Z,24.27
2023-05-23T10:48:44.111Z,24.21
2023-05-23T10:51:14.321Z,24.19
2023-05-23T10:53:43.305Z,24.21
2023-05-23T10:56:14.586Z,24.25
2023-05-23T10:58:42.183Z,24.14
2023-05-23T11:01:14.741Z,24.19
2023-05-23T11:04:05.496Z,24.20
2023-05-23T11:06:44.588Z,24.18
2023-05-23T11:09:20.218Z,24.24
2023-05-23T11:12:03.508Z,24.26
2023-05-23T11:14:34.784Z,24.32
2023-05-23T11:17:17.328Z,24.28
2023-05-23T11:20:06.131Z,24.24
2023-05-23T11:22:33.704Z,24.25
2023-05-23T11:25:02.522Z,24.22
2023-05-23T11:27:36.259Z,24.17
2023-05-23T11:30:17.570Z,24.15
2023-05-23T11:32:53.407Z,24.11
2023-05-23T11:35:21.906Z,24.12
2023-05-23T11:37:49.445Z,24.13
2023-05-23T11:40:36.850Z,24.16
2023-05-23T11:43:09.379Z,24.15
2023-05-23T11:45:38.274Z,24.09
2023-05-23T11:48:09.185Z,24.11
2023-05-23T11:50:48.612Z,24.05
2023-05-23T11:53:18.656Z,24.06
2023-05-23T11:55:54.348Z,24.03
2023-05-23T11:58:22.967Z,24.00
2023-05-23T12:00:55.230Z,23.99
2023-05-23T12:03:22.996Z,23.99
2023-05-23T12:05:50.571Z,23.98
2023-05-23T12:08:18.070Z,23.98
2023-05-23T12:10:58.101Z,24.00
2023-05-23T12:13:26.799Z,23.97
2023-05-23T12:16:01.450Z,23.94
2023-05-23T12:18:33.620Z,23.96
2023-05-23T12:21:06.093Z,23.96
2023-05-23T12:23:35.204Z,23.92
2023-05-23T12:26:07.189Z,23.91
2023-05-23T12:28:43.325Z,24.02
2023-05-23T12:31:10.740Z,24.09
2023-05-23T12:33:45.134Z,24.17
2023-05-23T12:36:32.124Z,24.24
2023-05-23T12:39:09.186Z,24.27
2023-05-23T12:41:36.694Z,24.27
2023-05-23T12:44:04.719Z,24.29
2023-05-23T12:46:32.135Z,24.31
2023-05-23T12:48:59.787Z,24.32
2023-05-23T12:51:27.217Z,24.33
2023-05-23T12:53:58.151Z,24.35
2023-05-23T12:56:26.620Z,24.38
2023-05-23T12:58:54.324Z,24.37
2023-05-23T13:01:21.703Z,24.37
2023-05-23T13:03:49.138Z,24.38
2023-05-23T13:06:16.524Z,24.39
2023-05-23T13:08:44.136Z,24.40
2023-05-23T13:11:11.709Z,24.43
2023-05-23T13:13:39.317Z,24.45
2023-05-23T13:16:06.928Z,24.45
2023-05-23T13:18:34.160Z,24.44
2023-05-23T13:21:01.583Z,24.45
2023-05-23T13:23:29.544Z,24.46
2023-05-23T13:25:58.011Z,24.46
2023-05-23T13:28:25.323Z,24.47
2023-05-23T13:30:52.887Z,24.47
2023-05-23T13:33:20.472Z,24.46
2023-05-23T13:35:49.273Z,24.46
2023-05-23T13:38:17.913Z,24.47
2023-05-23T13:40:45.462Z,24.49
2023-05-23T13:43:12.729Z,24.49
2023-05-23T13:45:40.199Z,24.48
2023-05-23T13:48:07.757Z,24.48
2023-05-23T13:50:35.018Z,24.48
2023-05-23T13:53:02.394Z,24.48
2023-05-23T13:55:29.682Z,24.48
2023-05-23T13:57:56.924Z,24.47
2023-05-23T14:00:24.371Z,24.48
2023-05-23T14:02:51.650Z,24.50
2023-05-23T14:05:19.675Z,24.47
2023-05-23T14:07:47.441Z,24.45
2023-05-23T14:10:17.337Z,24.43
2023-05-23T14:12:44.668Z,24.48
2023-05-23T14:15:12.246Z,24.47
2023-05-23T14:17:39.795Z,24.43
2023-05-23T14:20:07.975Z,24.39
2023-05-23T14:22:35.340Z,24.43
2023-05-23T14:25:02.703Z,24.43
2023-05-23T14:27:29.959Z,24.44
2023-05-23T14:29:57.257Z,24.45
2023-05-23T14:32:25.577Z,24.44
2023-05-23T14:34:53.047Z,24.45
2023-05-23T14:37:20.339Z,24.44
2023-05-23T14:39:47.667Z,24.46
2023-05-23T14:42:14.985Z,24.48
2023-05-23T14:44:42.488Z,24.47
2023-05-23T14:47:09.728Z,24.48
2023-05-23T14:49:36.974Z,24.48
2023-05-23T14:52:04.390Z,24.48
2023-05-23T14:54:31.827Z,24.47
2023-05-23T14:56:59.049Z,24.46
2023-05-23T14:59:26.389Z,24.47
2023-05-23T15:01:53.829Z,24.47
2023-05-23T15:04:21.274Z,24.46
2023-05-23T15:06:48.587Z,24.46
2023-05-23T15:09:16.847Z,24.46
2023-05-23T15:11:46.803Z,24.44
2023-05-23T15:14:14.134Z,24.43
2023-05-23T15:16:44.213Z,24.43
2023-05-23T15:19:11.690Z,24.42
2023-05-23T15:21:40.699Z,24.43
2023-05-23T15:24:11.411Z,24.43
2023-05-23T15:26:38.729Z,24.43
2023-05-23T15:29:06.135Z,24.44
2023-05-23T15:31:33.444Z,24.43
2023-05-23T15:34:01.370Z,24.43
2023-05-23T15:36:28.634Z,24.42
2023-05-23T15:38:56.028Z,24.40
2023-05-23T15:41:23.268Z,24.36
2023-05-23T15:43:50.490Z,24.36
2023-05-23T15:46:17.786Z,24.38
2023-05-23T15:48:45.074Z,24.36
2023-05-23T15:51:12.526Z,24.35
2023-05-23T15:53:58.938Z,24.36
2023-05-23T15:56:28.716Z,24.37
2023-05-23T15:58:56.765Z,24.38
2023-05-23T16:01:24.433Z,24.37
2023-05-23T16:03:51.843Z,24.38
2023-05-23T16:06:19.230Z,24.37
2023-05-23T16:08:48.131Z,24.38
2023-05-23T16:11:15.390Z,24.42
2023-05-23T16:13:42.650Z,24.40
2023-05-23T16:16:09.997Z,24.40
2023-05-23T16:18:37.503Z,24.40
2023-05-23T16:21:05.090Z,24.39
2023-05-23T16:23:32.621Z,24.42
2023-05-23T16:25:59.856Z,24.40
2023-05-23T16:28:28.912Z,24.41
2023-05-23T16:30:56.709Z,24.42
2023-05-23T16:33:24.120Z,24.39
2023-05-23T16:35:51.387Z,24.40
2023-05-23T16:38:18.656Z,24.40
2023-05-23T16:40:46.067Z,24.40
2023-05-23T16:43:13.614Z,24.40
2023-05-23T16:45:42.076Z,24.32
2023-05-23T16:48:09.758Z,24.29
2023-05-23T16:50:37.127Z,24.30
2023-05-23T16:53:04.421Z,24.34
2023-05-23T16:55:31.734Z,24.35
2023-05-23T16:57:58.985Z,24.36
2023-05-23T17:00:27.323Z,24.36
2023-05-23T17:02:54.905Z,24.37
2023-05-23T17:05:22.377Z,24.38
2023-05-23T17:07:49.881Z,24.39
2023-05-23T17:10:19.442Z,24.39
2023-05-23T17:12:47.733Z,24.40
2023-05-23T17:15:15.006Z,24.37
2023-05-23T17:17:42.432Z,24.41
2023-05-23T17:20:10.510Z,24.40
2023-05-23T17:22:38.064Z,24.39
2023-05-23T17:25:06.532Z,24.27
2023-05-23T17:27:34.975Z,23.98
2023-05-23T17:30:05.057Z,24.13
2023-05-23T17:32:33.536Z,23.88
2023-05-23T17:35:00.832Z,23.76
2023-05-23T17:37:28.223Z,23.70
2023-05-23T17:39:57.645Z,23.72
2023-05-23T17:42:25.705Z,23.58
2023-05-23T17:44:56.401Z,23.53
2023-05-23T17:47:23.687Z,23.39
2023-05-23T17:49:50.945Z,23.50
2023-05-23T17:52:18.224Z,23.38
2023-05-23T17:54:45.436Z,23.61
2023-05-23T17:57:12.728Z,23.91
2023-05-23T17:59:40.263Z,24.06
2023-05-23T18:02:07.860Z,24.14
2023-05-23T18:04:35.616Z,24.18
2023-05-23T18:07:03.332Z,24.20
2023-05-23T18:09:30.700Z,24.23
2023-05-23T18:11:57.925Z,24.25
2023-05-23T18:14:25.249Z,24.27
2023-05-23T18:16:52.748Z,24.28
2023-05-23T18:19:20.211Z,24.29
2023-05-23T18:21:47.480Z,24.30
2023-05-23T18:24:14.782Z,24.31
2023-05-23T18:26:45.115Z,24.31
2023-05-23T18:29:12.816Z,24.31
2023-05-23T18:31:40.583Z,24.32
2023-05-23T18:34:07.869Z,24.34
2023-05-23T18:36:35.177Z,24.30
2023-05-23T18:39:02.481Z,24.29
2023-05-23T18:41:29.772Z,24.29
2023-05-23T18:43:57.081Z,24.30
2023-05-23T18:46:25.578Z,24.32
2023-05-23T18:48:53.264Z,24.32
2023-05-23T18:51:20.985Z,24.30
2023-05-23T18:53:48.263Z,24.30
2023-05-23T18:56:15.810Z,24.29
2023-05-23T18:58:44.166Z,24.28
2023-05-23T19:01:13.391Z,24.30
2023-05-23T19:03:41.353Z,24.29
2023-05-23T19:06:08.881Z,24.28
2023-05-23T19:08:36.453Z,24.29
2023-05-23T19:11:04.793Z,24.28
2023-05-23T19:13:32.097Z,24.27
2023-05-23T19:15:59.431Z,24.29
2023-05-23T19:18:27.402Z,24.29
2023-05-23T19:20:54.882Z,24.30
2023-05-23T19:23:22.277Z,24.27
2023-05-23T19:25:49.602Z,24.28
2023-05-23T19:28:17.073Z,24.27
2023-05-23T19:30:44.424Z,24.29
2023-05-23T19:33:11.796Z,24.26
2023-05-23T19:35:39.307Z,24.15
2023-05-23T19:38:06.572Z,23.93
2023-05-23T19:40:34.141Z,23.86
2023-05-23T19:43:01.877Z,23.66
2023-05-23T19:45:29.162Z,23.59
2023-05-23T19:47:57.970Z,23.60
2023-05-23T19:50:25.496Z,23.49
2023-05-23T19:53:00.381Z,23.44
2023-05-23T19:55:28.072Z,23.45
2023-05-23T19:57:58.562Z,23.49
2023-05-23T20:00:31.105Z,23.35
2023-05-23T20:02:58.407Z,23.36
2023-05-23T20:05:25.822Z,23.35
2023-05-23T20:07:53.550Z,23.21
2023-05-23T20:10:21.041Z,23.33
2023-05-23T20:12:48.271Z,23.21
2023-05-23T20:15:19.608Z,23.04
2023-05-23T20:17:52.854Z,23.15
2023-05-23T20:20:20.198Z,23.21
2023-05-23T20:22:47.504Z,23.15
2023-05-23T20:25:14.792Z,22.99
2023-05-23T20:27:42.104Z,22.92
2023-05-23T20:30:10.191Z,23.02
2023-05-23T20:32:43.131Z,23.04
2023-05-23T20:35:16.174Z,23.04
2023-05-23T20:37:44.024Z,23.00
2023-05-23T20:40:12.993Z,23.11
2023-05-23T20:42:40.765Z,23.22
2023-05-23T20:45:09.548Z,22.85
2023-05-23T20:47:41.199Z,22.82
2023-05-23T20:50:12.763Z,22.70
2023-05-23T20:52:44.971Z,22.67
2023-05-23T20:55:15.419Z,22.87
2023-05-23T20:57:43.270Z,22.92
2023-05-23T21:00:14.434Z,22.97
2023-05-23T21:02:42.853Z,23.24
2023-05-23T21:05:14.754Z,23.47
2023-05-23T21:07:42.390Z,23.58
2023-05-23T21:10:12.981Z,23.64
2023-05-23T21:12:41.352Z,23.72
2023-05-23T21:15:10.352Z,23.77
2023-05-23T21:17:37.597Z,23.82
2023-05-23T21:20:05.833Z,23.83
2023-05-23T21:22:33.312Z,23.83
2023-05-23T21:25:00.625Z,23.85
2023-05-23T21:27:29.126Z,23.87
2023-05-23T21:29:57.167Z,23.87
2023-05-23T21:32:24.506Z,23.87
2023-05-23T21:34:54.868Z,23.89
2023-05-23T21:37:22.092Z,23.89
2023-05-23T21:39:52.779Z,23.89
2023-05-23T21:42:21.210Z,23.89
2023-05-23T21:44:48.746Z,23.92
2023-05-23T21:47:16.013Z,23.91
2023-05-23T21:49:43.389Z,23.92
2023-05-23T21:52:10.634Z,23.92
2023-05-23T21:54:37.869Z,23.96
2023-05-23T21:57:05.250Z,23.92
2023-05-23T21:59:35.346Z,23.92
2023-05-23T22:02:02.747Z,23.93
2023-05-23T22:04:30.102Z,23.93
2023-05-23T22:06:57.453Z,23.95
2023-05-23T22:09:24.790Z,23.96
2023-05-23T22:11:52.650Z,23.94
2023-05-23T22:14:20.195Z,23.96
2023-05-23T22:16:50.124Z,23.97
2023-05-23T22:19:21.034Z,23.99
2023-05-23T22:21:48.629Z,23.98
2023-05-23T22:24:15.858Z,23.98
2023-05-23T22:26:43.105Z,23.98
2023-05-23T22:29:10.513Z,24.00
2023-05-23T22:31:37.823Z,24.04
2023-05-23T22:34:05.058Z,24.07
2023-05-23T22:36:33.523Z,24.09
2023-05-23T22:39:05.369Z,24.09
2023-05-23T22:41:32.689Z,24.09
2023-05-23T22:44:00.187Z,24.09
2023-05-23T22:46:29.333Z,24.07
2023-05-23T22:48:58.749Z,24.06
2023-05-23T22:51:27.049Z,24.11
2023-05-23T22:53:54.615Z,24.08
2023-05-23T22:56:22.101Z,24.06
2023-05-23T22:58:49.480Z,24.09
2023-05-23T23:01:16.842Z,24.08
2023-05-23T23:03:46.326Z,24.09
2023-05-23T23:06:13.569Z,24.07
2023-05-23T23:08:40.889Z,24.09
2023-05-23T23:11:08.309Z,24.09
2023-05-23T23:13:35.768Z,24.09
2023-05-23T23:16:03.194Z,24.10
2023-05-23T23:18:30.583Z,24.11
2023-05-23T23:20:58.209Z,24.12
2023-05-23T23:23:25.585Z,24.11
2023-05-23T23:25:53.133Z,24.05
2023-05-23T23:28:20.422Z,24.04
2023-05-23T23:30:47.704Z,24.02
2023-05-23T23:33:15.466Z,24.04
2023-05-23T23:35:45.433Z,24.05
2023-05-23T23:38:12.940Z,24.08
2023-05-23T23:40:40.406Z,24.09
2023-05-23T23:43:07.925Z,24.08
2023-05-23T23:45:36.423Z,24.08
2023-05-23T23:48:03.710Z,24.06
2023-05-23T23:50:31.975Z,24.10
2023-05-23T23:52:59.282Z,24.10
2023-05-23T23:55:26.578Z,24.11
2023-05-23T23:57:53.772Z,24.08
